createdAt,value
2023-01-05T00:01:12.158Z,46.65
2023-01-05T00:03:39.165Z,39.13
2023-01-05T00:06:09.966Z,41.40
2023-01-05T00:08:37.838Z,43.22
2023-01-05T00:11:43.431Z,38.35
2023-01-05T00:14:36.565Z,38.17
2023-01-05T00:17:22.717Z,40.30
2023-01-05T00:20:08.186Z,45.15
2023-01-05T00:22:47.244Z,47.17
2023-01-05T00:25:17.681Z,47.25
2023-01-05T00:27:46.478Z,43.78
2023-01-05T00:30:15.844Z,41.80
2023-01-05T00:32:43.463Z,41.25
2023-01-05T00:35:12.027Z,43.05
2023-01-05T00:37:38.867Z,44.67
2023-01-05T00:40:11.668Z,46.33
2023-01-05T00:42:38.352Z,46.83
2023-01-05T00:45:09.919Z,49.25
2023-01-05T00:47:36.628Z,51.38
2023-01-05T00:50:04.207Z,47.20
2023-01-05T00:52:30.953Z,47.75
2023-01-05T00:54:57.659Z,46.30
2023-01-05T00:57:24.302Z,44.75
2023-01-05T00:59:50.861Z,46.05
2023-01-05T01:02:17.861Z,45.25
2023-01-05T01:04:44.485Z,45.30
2023-01-05T01:07:11.064Z,45.58
2023-01-05T01:09:37.768Z,51.35
2023-01-05T01:12:04.597Z,46.13
2023-01-05T01:14:31.257Z,46.83
2023-01-05T01:16:57.886Z,44.13
2023-01-05T01:19:26.743Z,40.55
2023-01-05T01:21:53.464Z,40.33
2023-01-05T01:24:25.698Z,46.05
2023-01-05T01:26:53.502Z,44.60
2023-01-05T01:29:21.223Z,46.97
2023-01-05T01:31:50.796Z,42.45
2023-01-05T01:34:17.452Z,40.33
2023-01-05T01:36:44.142Z,44.08
2023-01-05T01:39:11.739Z,39.83
2023-01-05T01:41:38.781Z,41.38
2023-01-05T01:44:42.829Z,43.63
2023-01-05T01:47:15.822Z,41.20
2023-01-05T01:49:42.781Z,42.55
2023-01-05T01:52:09.521Z,41.28
2023-01-05T01:54:36.306Z,42.30
2023-01-05T01:57:04.472Z,43.38
2023-01-05T01:59:31.242Z,44.22
2023-01-05T02:02:01.501Z,46.70
2023-01-05T02:04:32.584Z,43.75
2023-01-05T02:07:00.241Z,46.25
2023-01-05T02:09:27.115Z,47.05
2023-01-05T02:12:15.228Z,48.22
2023-01-05T02:14:47.804Z,45.88
2023-01-05T02:17:23.125Z,47.30
2023-01-05T02:20:04.883Z,48.03
2023-01-05T02:22:50.155Z,49.17
2023-01-05T02:25:44.089Z,46.15
2023-01-05T02:28:49.799Z,49.55
2023-01-05T02:31:24.537Z,42.60
2023-01-05T02:34:09.416Z,44.53
2023-01-05T02:37:14.474Z,47.13
2023-01-05T02:39:58.173Z,49.45
2023-01-05T02:42:27.813Z,48.90
2023-01-05T02:44:54.480Z,50.67
2023-01-05T02:47:28.008Z,54.63
2023-01-05T02:49:59.700Z,53.28
2023-01-05T02:52:27.545Z,58.75
2023-01-05T02:54:59.864Z,53.00
2023-01-05T02:57:48.201Z,58.35
2023-01-05T03:00:27.637Z,51.22
2023-01-05T03:03:01.079Z,45.17
2023-01-05T03:05:44.544Z,49.83
2023-01-05T03:08:26.424Z,47.20
2023-01-05T03:11:25.278Z,48.80
2023-01-05T03:14:03.676Z,47.73
2023-01-05T03:16:35.589Z,46.50
2023-01-05T03:19:23.891Z,51.70
2023-01-05T03:22:11.401Z,42.90
2023-01-05T03:24:57.292Z,44.35
2023-01-05T03:27:43.234Z,43.22
2023-01-05T03:30:29.761Z,48.60
2023-01-05T03:33:25.997Z,45.75
2023-01-05T03:35:58.951Z,45.55
2023-01-05T03:38:35.255Z,47.90
2023-01-05T03:41:05.835Z,46.97
2023-01-05T03:43:36.852Z,44.85
2023-01-05T03:46:11.673Z,51.00
2023-01-05T03:48:38.333Z,46.85
2023-01-05T03:51:05.496Z,52.05
2023-01-05T03:53:32.050Z,51.75
2023-01-05T03:55:58.627Z,45.72
2023-01-05T03:58:25.216Z,53.63
2023-01-05T04:00:51.908Z,49.33
2023-01-05T04:03:18.525Z,53.55
2023-01-05T04:05:45.150Z,57.92
2023-01-05T04:08:11.721Z,51.10
2023-01-05T04:10:38.264Z,52.53
2023-01-05T04:13:04.828Z,53.45
2023-01-05T04:15:31.472Z,53.45
2023-01-05T04:17:58.038Z,54.25
2023-01-05T04:20:24.620Z,55.88
2023-01-05T04:22:51.241Z,56.65
2023-01-05T04:25:17.831Z,61.53
2023-01-05T04:27:44.380Z,55.55
2023-01-05T04:30:11.490Z,59.22
2023-01-05T04:32:38.045Z,59.83
2023-01-05T04:35:10.870Z,60.35
2023-01-05T04:37:39.082Z,55.83
2023-01-05T04:40:06.419Z,56.50
2023-01-05T04:42:32.976Z,50.40
2023-01-05T04:44:59.529Z,48.30
2023-01-05T04:47:26.096Z,47.35
2023-01-05T04:49:52.660Z,46.28
2023-01-05T04:52:19.284Z,49.03
2023-01-05T04:54:45.882Z,45.85
2023-01-05T04:57:12.479Z,46.58
2023-01-05T04:59:39.024Z,45.25
2023-01-05T05:02:05.871Z,47.38
2023-01-05T05:04:32.527Z,47.88
2023-01-05T05:06:59.112Z,45.47
2023-01-05T05:09:25.739Z,47.17
2023-01-05T05:11:52.358Z,46.70
2023-01-05T05:14:18.913Z,47.67
2023-01-05T05:16:45.501Z,48.92
2023-01-05T05:19:12.086Z,48.28
2023-01-05T05:21:38.666Z,51.67
2023-01-05T05:24:06.391Z,49.88
2023-01-05T05:26:33.024Z,52.60
2023-01-05T05:28:59.835Z,53.20
2023-01-05T05:31:26.666Z,55.05
2023-01-05T05:33:53.340Z,57.10
2023-01-05T05:36:20.067Z,58.83
2023-01-05T05:38:46.764Z,57.40
2023-01-05T05:41:13.510Z,55.45
2023-01-05T05:43:40.092Z,57.53
2023-01-05T05:46:06.736Z,56.58
2023-01-05T05:48:33.447Z,49.50
2023-01-05T05:51:00.119Z,49.97
2023-01-05T05:53:26.688Z,50.35
2023-01-05T05:55:53.300Z,53.90
2023-01-05T05:58:20.188Z,49.63
2023-01-05T06:00:47.589Z,48.90
2023-01-05T06:03:14.541Z,47.35
2023-01-05T06:05:41.254Z,46.90
2023-01-05T06:08:07.894Z,43.63
2023-01-05T06:10:34.515Z,46.35
2023-01-05T06:13:01.112Z,43.83
2023-01-05T06:15:27.732Z,44.53
2023-01-05T06:17:54.372Z,42.85
2023-01-05T06:20:20.971Z,42.97
2023-01-05T06:22:47.596Z,45.70
2023-01-05T06:25:14.412Z,44.22
2023-01-05T06:27:41.021Z,45.15
2023-01-05T06:30:08.367Z,47.15
2023-01-05T06:32:35.025Z,43.03
2023-01-05T06:35:01.603Z,43.08
2023-01-05T06:37:28.194Z,43.72
2023-01-05T06:39:56.380Z,44.10
2023-01-05T06:42:23.839Z,43.63
2023-01-05T06:44:50.770Z,41.75
2023-01-05T06:47:17.761Z,41.97
2023-01-05T06:49:44.410Z,42.35
2023-01-05T06:52:16.294Z,43.95
2023-01-05T06:54:43.309Z,43.78
2023-01-05T06:57:10.426Z,40.03
2023-01-05T06:59:37.033Z,42.30
2023-01-05T07:02:03.719Z,42.08
2023-01-05T07:04:30.394Z,42.75
2023-01-05T07:06:57.264Z,41.25
2023-01-05T07:09:23.865Z,41.40
2023-01-05T07:11:50.490Z,44.22
2023-01-05T07:14:17.356Z,43.42
2023-01-05T07:16:44.016Z,42.85
2023-01-05T07:19:10.746Z,43.55
2023-01-05T07:21:37.300Z,41.17
2023-01-05T07:24:04.102Z,41.25
2023-01-05T07:26:30.694Z,40.83
2023-01-05T07:28:58.567Z,39.17
2023-01-05T07:31:25.237Z,38.55
2023-01-05T07:33:51.848Z,39.03
2023-01-05T07:36:18.440Z,39.33
2023-01-05T07:38:45.029Z,41.25
2023-01-05T07:41:11.801Z,38.70
2023-01-05T07:43:38.475Z,43.88
2023-01-05T07:46:05.475Z,37.95
2023-01-05T07:48:32.126Z,38.67
2023-01-05T07:51:04.479Z,39.85
2023-01-05T07:53:41.290Z,39.15
2023-01-05T07:56:11.775Z,42.55
2023-01-05T07:58:38.806Z,43.25
2023-01-05T08:01:07.548Z,47.33
2023-01-05T08:03:34.377Z,41.03
2023-01-05T08:06:08.875Z,42.55
2023-01-05T08:08:35.563Z,43.55
2023-01-05T08:11:06.972Z,42.30
2023-01-05T08:13:52.388Z,56.78
2023-01-05T08:16:19.467Z,46.30
2023-01-05T08:18:46.491Z,69.40
2023-01-05T08:21:13.341Z,63.13
2023-01-05T08:23:40.045Z,49.00
2023-01-05T08:26:11.044Z,52.60
2023-01-05T08:28:38.804Z,50.92
2023-01-05T08:31:10.246Z,48.83
2023-01-05T08:33:37.491Z,46.70
2023-01-05T08:36:12.717Z,50.13
2023-01-05T08:38:51.035Z,65.47
2023-01-05T08:41:28.520Z,49.30
2023-01-05T08:43:57.720Z,47.28
2023-01-05T08:46:27.233Z,54.90
2023-01-05T08:48:56.602Z,51.00
2023-01-05T08:51:23.395Z,57.90
2023-01-05T08:53:50.344Z,46.65
2023-01-05T08:56:17.352Z,54.97
2023-01-05T08:58:44.425Z,53.35
2023-01-05T09:01:13.413Z,62.38
2023-01-05T09:03:40.312Z,46.83
2023-01-05T09:06:09.423Z,52.17
2023-01-05T09:08:36.320Z,60.25
2023-01-05T09:11:09.088Z,65.68
2023-01-05T09:13:36.390Z,48.40
2023-01-05T09:16:11.069Z,46.83
2023-01-05T09:18:39.264Z,57.08
2023-01-05T09:21:06.692Z,61.25
2023-01-05T09:23:34.039Z,68.50
2023-01-05T09:26:00.679Z,50.05
2023-01-05T09:28:27.441Z,51.75
2023-01-05T09:30:54.168Z,52.17
2023-01-05T09:33:20.846Z,50.15
2023-01-05T09:35:56.675Z,50.83
2023-01-05T09:38:23.954Z,52.80
2023-01-05T09:40:53.227Z,58.15
2023-01-05T09:43:31.518Z,92.00
2023-01-05T09:45:58.982Z,94.22
2023-01-05T09:48:26.742Z,71.25
2023-01-05T09:50:54.114Z,80.30
2023-01-05T09:53:29.287Z,103.15
2023-01-05T09:55:57.449Z,118.45
2023-01-05T09:58:30.205Z,127.75
2023-01-05T10:01:09.843Z,140.25
2023-01-05T10:06:32.480Z,138.05
2023-01-05T10:08:59.815Z,149.48
2023-01-05T10:11:50.768Z,153.48
2023-01-05T10:14:24.290Z,143.02
2023-01-05T10:16:57.837Z,147.38
2023-01-05T10:19:34.505Z,156.85
2023-01-05T10:22:20.044Z,151.75
2023-01-05T10:25:00.867Z,167.38
2023-01-05T10:27:30.165Z,165.93
2023-01-05T10:30:05.774Z,165.02
2023-01-05T10:32:49.682Z,170.50
2023-01-05T10:35:42.024Z,166.57
2023-01-05T10:38:30.961Z,158.75
2023-01-05T10:41:29.919Z,157.07
2023-01-05T10:44:07.403Z,155.73
2023-01-05T10:46:42.779Z,156.63
2023-01-05T10:49:19.608Z,155.00
2023-01-05T10:51:50.018Z,155.77
2023-01-05T10:54:43.162Z,160.25
2023-01-05T10:57:37.421Z,152.15
2023-01-05T11:00:13.152Z,162.57
2023-01-05T11:02:53.300Z,169.57
2023-01-05T11:05:35.109Z,171.40
2023-01-05T11:08:05.669Z,171.63
2023-01-05T11:10:40.578Z,171.40
2023-01-05T11:13:29.901Z,170.60
2023-01-05T11:16:01.035Z,169.63
2023-01-05T11:18:36.224Z,175.20
2023-01-05T11:21:12.791Z,176.80
2023-01-05T11:23:43.932Z,171.02
2023-01-05T11:26:19.374Z,173.82
2023-01-05T11:29:10.363Z,177.63
2023-01-05T11:31:44.881Z,175.48
2023-01-05T11:34:35.845Z,180.25
2023-01-05T11:37:29.311Z,183.35
2023-01-05T11:39:57.311Z,179.60
2023-01-05T11:42:26.147Z,179.52
2023-01-05T11:44:59.141Z,179.18
2023-01-05T11:47:41.346Z,180.50
2023-01-05T11:50:12.671Z,174.82
2023-01-05T11:52:51.019Z,171.70
2023-01-05T11:55:20.396Z,179.23
2023-01-05T11:57:51.545Z,163.00
2023-01-05T12:00:32.564Z,161.97
2023-01-05T12:03:24.276Z,152.13
2023-01-05T12:05:54.778Z,144.57
2023-01-05T12:08:27.690Z,144.27
2023-01-05T12:10:59.807Z,145.65
2023-01-05T12:13:35.576Z,145.65
2023-01-05T12:16:31.095Z,144.70
2023-01-05T12:19:27.891Z,136.38
2023-01-05T12:22:10.434Z,138.93
2023-01-05T12:24:45.124Z,146.88
2023-01-05T12:36:25.948Z,154.98
2023-01-05T12:39:35.051Z,154.95
2023-01-05T12:42:27.583Z,147.98
2023-01-05T12:45:31.243Z,158.30
2023-01-05T12:48:21.715Z,157.50
2023-01-05T12:50:55.906Z,176.73
2023-01-05T12:53:36.896Z,167.88
2023-01-05T12:56:14.951Z,164.45
2023-01-05T12:58:53.931Z,162.70
2023-01-05T13:01:27.679Z,176.95
2023-01-05T13:04:03.957Z,174.02
2023-01-05T13:06:37.528Z,167.73
2023-01-05T13:09:22.470Z,180.85
2023-01-05T13:14:26.026Z,175.45
2023-01-05T13:16:59.908Z,166.50
2023-01-05T13:19:41.724Z,160.25
2023-01-05T13:22:23.374Z,157.10
2023-01-05T13:24:57.886Z,160.48
2023-01-05T13:27:26.173Z,163.90
2023-01-05T13:29:59.335Z,162.50
2023-01-05T13:32:56.428Z,158.57
2023-01-05T13:35:34.618Z,153.90
2023-01-05T13:38:19.819Z,159.75
2023-01-05T13:41:03.542Z,144.70
2023-01-05T13:43:57.702Z,157.68
2023-01-05T13:46:45.258Z,156.80
2023-01-05T13:49:32.907Z,151.15
2023-01-05T13:52:03.920Z,149.35
2023-01-05T13:55:02.051Z,150.35
2023-01-05T13:57:36.581Z,151.25
2023-01-05T14:00:19.832Z,156.48
2023-01-05T14:03:02.154Z,154.75
2023-01-05T14:05:50.778Z,151.18
2023-01-05T14:08:28.281Z,146.65
2023-01-05T14:11:14.217Z,150.98
2023-01-05T14:13:50.604Z,139.70
2023-01-05T14:16:46.172Z,147.75
2023-01-05T14:19:45.192Z,143.50
2023-01-05T14:22:20.562Z,143.57
2023-01-05T14:24:48.248Z,150.50
2023-01-05T14:27:22.635Z,148.05
2023-01-05T14:32:43.654Z,141.65
2023-01-05T14:35:30.882Z,137.77
2023-01-05T14:38:01.281Z,141.38
2023-01-05T14:40:39.783Z,140.18
2023-01-05T14:43:24.001Z,137.68
2023-01-05T14:46:14.424Z,139.43
2023-01-05T14:48:44.701Z,133.40
2023-01-05T14:51:14.339Z,130.52
2023-01-05T14:53:44.127Z,134.80
2023-01-05T14:56:20.050Z,137.25
2023-01-05T14:58:53.392Z,129.00
2023-01-05T15:01:25.850Z,129.02
2023-01-05T15:04:04.430Z,127.82
2023-01-05T15:06:40.059Z,124.40
2023-01-05T15:09:18.115Z,122.28
2023-01-05T15:12:05.554Z,120.38
2023-01-05T15:14:44.136Z,118.55
2023-01-05T15:17:56.957Z,117.43
2023-01-05T15:20:26.477Z,111.07
2023-01-05T15:23:17.616Z,112.38
2023-01-05T15:26:21.486Z,111.82
2023-01-05T15:28:51.019Z,108.50
2023-01-05T15:31:35.746Z,110.95
2023-01-05T15:37:17.515Z,109.38
2023-01-05T15:39:50.256Z,102.53
2023-01-05T15:42:42.333Z,109.50
2023-01-05T15:45:30.327Z,103.82
2023-01-05T15:48:00.491Z,101.07
2023-01-05T15:50:38.758Z,107.25
2023-01-05T15:53:05.382Z,104.22
2023-01-05T15:55:31.971Z,107.15
2023-01-05T15:58:15.732Z,108.28
2023-01-05T16:00:42.419Z,107.25
2023-01-05T16:03:26.987Z,106.85
2023-01-05T16:06:06.689Z,102.10
2023-01-05T16:08:36.390Z,98.82
2023-01-05T16:11:08.179Z,97.97
2023-01-05T16:13:40.911Z,97.57
2023-01-05T16:16:49.488Z,96.22
2023-01-05T16:19:12.440Z,86.35
2023-01-05T16:21:52.761Z,89.25
2023-01-05T16:24:33.042Z,85.72
2023-01-05T16:27:01.747Z,84.35
2023-01-05T16:29:47.050Z,87.63
2023-01-05T16:32:37.258Z,81.03
2023-01-05T16:35:21.916Z,76.25
2023-01-05T16:38:10.677Z,77.10
2023-01-05T16:40:55.163Z,74.45
2023-01-05T16:43:35.775Z,71.35
2023-01-05T16:46:28.964Z,66.30
2023-01-05T16:49:25.018Z,68.70
2023-01-05T16:51:53.296Z,69.18
2023-01-05T16:54:44.250Z,72.38
2023-01-05T16:57:31.400Z,67.03
2023-01-05T16:59:57.967Z,69.75
2023-01-05T17:02:43.518Z,78.25
2023-01-05T17:05:12.807Z,74.65
2023-01-05T17:07:41.109Z,80.30
2023-01-05T17:10:14.531Z,86.00
2023-01-05T17:12:41.236Z,86.15
2023-01-05T17:15:08.404Z,90.55
2023-01-05T17:17:35.295Z,92.47
2023-01-05T17:20:01.957Z,89.22
2023-01-05T17:22:28.993Z,89.65
2023-01-05T17:24:55.977Z,87.95
2023-01-05T17:27:22.653Z,87.55
2023-01-05T17:29:49.262Z,86.13
2023-01-05T17:32:15.947Z,86.03
2023-01-05T17:34:42.477Z,81.45
2023-01-05T17:37:15.632Z,83.10
2023-01-05T17:39:42.252Z,83.95
2023-01-05T17:42:38.285Z,82.32
2023-01-05T17:45:05.346Z,75.40
2023-01-05T17:47:31.894Z,77.93
2023-01-05T17:49:58.447Z,80.68
2023-01-05T17:52:24.992Z,81.85
2023-01-05T17:54:51.528Z,85.22
2023-01-05T17:57:18.044Z,93.28
2023-01-05T17:59:45.711Z,89.55
2023-01-05T18:02:12.415Z,89.72
2023-01-05T18:04:38.995Z,94.88
2023-01-05T18:07:05.695Z,95.45
2023-01-05T18:09:33.827Z,97.07
2023-01-05T18:12:00.400Z,97.53
2023-01-05T18:14:27.191Z,101.18
2023-01-05T18:16:53.824Z,100.47
2023-01-05T18:19:20.536Z,103.43
2023-01-05T18:21:47.150Z,98.95
2023-01-05T18:24:13.759Z,99.22
2023-01-05T18:26:40.423Z,95.85
2023-01-05T18:29:07.076Z,96.20
2023-01-05T18:31:35.845Z,92.68
2023-01-05T18:34:05.326Z,93.43
2023-01-05T18:36:31.942Z,96.45
2023-01-05T18:38:58.480Z,93.10
2023-01-05T18:41:25.310Z,92.28
2023-01-05T18:43:52.009Z,96.32
2023-01-05T18:46:18.860Z,95.30
2023-01-05T18:48:52.111Z,92.72
2023-01-05T18:51:18.812Z,97.15
2023-01-05T18:53:45.456Z,91.97
2023-01-05T18:56:13.718Z,93.75
2023-01-05T18:58:40.793Z,87.03
2023-01-05T19:01:09.844Z,83.45
2023-01-05T19:03:36.567Z,87.32
2023-01-05T19:06:09.459Z,87.10
2023-01-05T19:08:36.404Z,91.97
2023-01-05T19:11:17.289Z,86.85
2023-01-05T19:13:45.393Z,80.47
2023-01-05T19:16:14.710Z,80.53
2023-01-05T19:18:42.684Z,80.05
2023-01-05T19:21:09.941Z,86.10
2023-01-05T19:23:36.547Z,83.07
2023-01-05T19:26:05.691Z,83.70
2023-01-05T19:28:35.709Z,82.00
2023-01-05T19:31:06.934Z,78.40
2023-01-05T19:33:33.725Z,82.07
2023-01-05T19:36:13.852Z,76.80
2023-01-05T19:38:41.008Z,74.22
2023-01-05T19:41:13.451Z,81.07
2023-01-05T19:43:41.264Z,81.47
2023-01-05T19:46:13.763Z,83.60
2023-01-05T19:48:42.054Z,84.35
2023-01-05T19:51:11.310Z,91.60
2023-01-05T19:53:39.843Z,83.88
2023-01-05T19:56:09.815Z,87.43
2023-01-05T19:58:36.427Z,87.80
2023-01-05T20:01:21.801Z,86.10
2023-01-05T20:03:48.892Z,87.13
2023-01-05T20:06:18.081Z,86.07
2023-01-05T20:08:52.393Z,90.00
2023-01-05T20:11:35.709Z,94.35
2023-01-05T20:14:03.731Z,94.35
2023-01-05T20:16:31.274Z,95.88
2023-01-05T20:18:58.807Z,89.70
2023-01-05T20:21:25.789Z,83.18
2023-01-05T20:23:52.451Z,83.68
2023-01-05T20:26:21.853Z,85.00
2023-01-05T20:28:48.903Z,84.03
2023-01-05T20:31:24.016Z,85.10
2023-01-05T20:33:54.947Z,84.57
2023-01-05T20:36:22.962Z,81.78
2023-01-05T20:38:49.687Z,80.47
2023-01-05T20:41:19.302Z,84.25
2023-01-05T20:43:47.690Z,85.22
2023-01-05T20:46:16.352Z,84.38
2023-01-05T20:48:43.582Z,81.15
2023-01-05T20:51:12.900Z,80.20
2023-01-05T20:53:40.231Z,77.40
2023-01-05T20:56:09.409Z,82.95
2023-01-05T20:58:36.942Z,79.05
2023-01-05T21:01:11.196Z,79.60
2023-01-05T21:03:39.624Z,76.35
2023-01-05T21:06:08.173Z,77.38
2023-01-05T21:08:35.732Z,81.95
2023-01-05T21:11:04.463Z,75.28
2023-01-05T21:13:33.099Z,76.15
2023-01-05T21:16:05.931Z,72.50
2023-01-05T21:18:33.689Z,75.53
2023-01-05T21:21:00.287Z,80.07
2023-01-05T21:23:26.952Z,76.75
2023-01-05T21:26:06.743Z,75.65
2023-01-05T21:28:38.725Z,77.82
2023-01-05T21:31:08.730Z,72.85
2023-01-05T21:33:36.349Z,72.55
2023-01-05T21:36:04.455Z,77.68
2023-01-05T21:39:01.681Z,79.68
2023-01-05T21:41:38.637Z,72.43
2023-01-05T21:44:07.321Z,69.82
2023-01-05T21:46:34.689Z,73.93
2023-01-05T21:49:01.398Z,75.43
2023-01-05T21:51:46.505Z,79.45
2023-01-05T21:56:59.628Z,73.73
2023-01-05T21:59:26.334Z,76.47
2023-01-05T22:01:53.279Z,80.72
2023-01-05T22:04:20.105Z,81.45
2023-01-05T22:06:46.920Z,81.75
2023-01-05T22:09:13.482Z,77.10
2023-01-05T22:11:40.039Z,78.20
2023-01-05T22:14:06.656Z,78.65
2023-01-05T22:16:34.012Z,87.03
2023-01-05T22:19:00.800Z,90.40
2023-01-05T22:21:27.457Z,93.68
2023-01-05T22:23:54.076Z,95.35
2023-01-05T22:26:21.035Z,98.55
2023-01-05T22:28:49.461Z,91.32
2023-01-05T22:31:22.617Z,92.07
2023-01-05T22:33:52.389Z,96.85
2023-01-05T22:36:20.867Z,94.53
2023-01-05T22:38:49.333Z,95.50
2023-01-05T22:41:19.341Z,90.50
2023-01-05T22:43:46.532Z,91.13
2023-01-05T22:46:19.256Z,89.70
2023-01-05T22:48:47.337Z,88.72
2023-01-05T22:51:20.756Z,99.72
2023-01-05T22:53:49.357Z,100.97
2023-01-05T22:56:18.038Z,106.60
2023-01-05T22:58:45.116Z,108.00
2023-01-05T23:01:30.189Z,113.28
2023-01-05T23:06:25.754Z,94.22
2023-01-05T23:08:53.590Z,97.82
2023-01-05T23:11:32.614Z,78.65
2023-01-05T23:14:01.238Z,87.18
2023-01-05T23:16:28.510Z,77.82
2023-01-05T23:18:55.233Z,79.15
2023-01-05T23:21:23.635Z,82.15
2023-01-05T23:23:55.816Z,67.15
2023-01-05T23:26:23.552Z,70.47
2023-01-05T23:28:50.142Z,73.82
2023-01-05T23:31:19.125Z,69.25
2023-01-05T23:33:47.702Z,63.10
2023-01-05T23:36:16.405Z,60.85
2023-01-05T23:38:43.536Z,50.17
2023-01-05T23:41:11.497Z,61.97
2023-01-05T23:43:40.967Z,65.80
2023-01-05T23:46:11.328Z,62.10
2023-01-05T23:48:38.860Z,61.22
2023-01-05T23:51:07.825Z,59.55
2023-01-05T23:53:34.425Z,59.95
2023-01-05T23:56:14.906Z,59.05
2023-01-05T23:58:42.449Z,58.47
